sensor_id;sensor_type;location;lat;lon;timestamp;temperature;humidity
27492;DHT22;14927;51.210;6.838;2022-09-09T00:00:12;22.40;57.60
27492;DHT22;14927;51.210;6.838;2022-09-09T00:09:14;22.30;58.40
27492;DHT22;14927;51.210;6.838;2022-09-09T00:15:41;22.30;58.80
27492;DHT22;14927;51.210;6.838;2022-09-09T00:21:40;22.20;58.60
27492;DHT22;14927;51.210;6.838;2022-09-09T00:24:47;22.20;58.50
27492;DHT22;14927;51.210;6.838;2022-09-09T00:27:44;22.20;59.10
27492;DHT22;14927;51.210;6.838;2022-09-09T00:30:38;22.10;58.40
27492;DHT22;14927;51.210;6.838;2022-09-09T00:33:23;22.10;58.90
27492;DHT22;14927;51.210;6.838;2022-09-09T00:36:14;22.00;58.80
27492;DHT22;14927;51.210;6.838;2022-09-09T00:39:01;22.00;59.20
27492;DHT22;14927;51.210;6.838;2022-09-09T00:52:26;21.90;59.70
27492;DHT22;14927;51.210;6.838;2022-09-09T00:58:37;21.90;60.10
27492;DHT22;14927;51.210;6.838;2022-09-09T01:01:22;21.80;59.90
27492;DHT22;14927;51.210;6.838;2022-09-09T01:04:14;21.80;60.30
27492;DHT22;14927;51.210;6.838;2022-09-09T01:07:11;21.80;60.80
27492;DHT22;14927;51.210;6.838;2022-09-09T01:10:07;21.80;60.50
27492;DHT22;14927;51.210;6.838;2022-09-09T01:13:14;21.80;60.20
27492;DHT22;14927;51.210;6.838;2022-09-09T01:16:08;21.80;60.40
27492;DHT22;14927;51.210;6.838;2022-09-09T01:18:56;21.80;60.30
27492;DHT22;14927;51.210;6.838;2022-09-09T01:28:28;21.80;60.40
27492;DHT22;14927;51.210;6.838;2022-09-09T01:31:27;21.80;59.60
27492;DHT22;14927;51.210;6.838;2022-09-09T01:34:16;21.70;59.90
27492;DHT22;14927;51.210;6.838;2022-09-09T01:37:07;21.80;59.60
27492;DHT22;14927;51.210;6.838;2022-09-09T01:39:53;21.80;59.90
27492;DHT22;14927;51.210;6.838;2022-09-09T01:42:39;21.70;59.70
27492;DHT22;14927;51.210;6.838;2022-09-09T01:45:24;21.70;59.70
27492;DHT22;14927;51.210;6.838;2022-09-09T01:48:09;21.70;59.80
27492;DHT22;14927;51.210;6.838;2022-09-09T01:51:00;21.70;59.80
27492;DHT22;14927;51.210;6.838;2022-09-09T01:53:47;21.80;59.90
27492;DHT22;14927;51.210;6.838;2022-09-09T01:56:36;21.80;59.90
27492;DHT22;14927;51.210;6.838;2022-09-09T02:02:25;21.70;59.60
27492;DHT22;14927;51.210;6.838;2022-09-09T02:08:15;21.80;59.60
27492;DHT22;14927;51.210;6.838;2022-09-09T02:11:18;21.70;60.00
27492;DHT22;14927;51.210;6.838;2022-09-09T02:14:14;21.70;60.50
27492;DHT22;14927;51.210;6.838;2022-09-09T02:17:14;21.80;60.50
27492;DHT22;14927;51.210;6.838;2022-09-09T02:20:12;21.70;60.50
27492;DHT22;14927;51.210;6.838;2022-09-09T02:23:02;21.80;60.20
27492;DHT22;14927;51.210;6.838;2022-09-09T02:25:49;21.70;60.00
27492;DHT22;14927;51.210;6.838;2022-09-09T02:28:39;21.70;60.10
27492;DHT22;14927;51.210;6.838;2022-09-09T02:31:29;21.70;60.10
27492;DHT22;14927;51.210;6.838;2022-09-09T02:34:23;21.70;59.90
27492;DHT22;14927;51.210;6.838;2022-09-09T02:37:12;21.70;59.90
27492;DHT22;14927;51.210;6.838;2022-09-09T02:39:57;21.70;59.70
27492;DHT22;14927;51.210;6.838;2022-09-09T02:42:44;21.80;59.70
27492;DHT22;14927;51.210;6.838;2022-09-09T02:45:41;21.80;59.70
27492;DHT22;14927;51.210;6.838;2022-09-09T02:54:35;21.80;59.70
27492;DHT22;14927;51.210;6.838;2022-09-09T02:57:28;21.80;59.40
27492;DHT22;14927;51.210;6.838;2022-09-09T03:00:43;21.80;59.40
27492;DHT22;14927;51.210;6.838;2022-09-09T03:03:30;21.80;59.40
27492;DHT22;14927;51.210;6.838;2022-09-09T03:06:22;21.80;59.00
27492;DHT22;14927;51.210;6.838;2022-09-09T03:09:12;21.80;59.30
27492;DHT22;14927;51.210;6.838;2022-09-09T03:11:57;21.80;59.20
27492;DHT22;14927;51.210;6.838;2022-09-09T03:14:43;21.80;59.00
27492;DHT22;14927;51.210;6.838;2022-09-09T03:17:30;21.80;59.00
27492;DHT22;14927;51.210;6.838;2022-09-09T03:20:15;21.80;59.00
27492;DHT22;14927;51.210;6.838;2022-09-09T03:23:06;21.80;59.00
27492;DHT22;14927;51.210;6.838;2022-09-09T03:25:59;21.80;58.90
27492;DHT22;14927;51.210;6.838;2022-09-09T03:28:47;21.80;58.70
27492;DHT22;14927;51.210;6.838;2022-09-09T03:31:34;21.80;58.70
27492;DHT22;14927;51.210;6.838;2022-09-09T03:34:21;21.80;58.80
27492;DHT22;14927;51.210;6.838;2022-09-09T03:37:07;21.80;58.70
27492;DHT22;14927;51.210;6.838;2022-09-09T03:39:52;21.80;58.80
27492;DHT22;14927;51.210;6.838;2022-09-09T03:42:39;21.80;58.70
27492;DHT22;14927;51.210;6.838;2022-09-09T03:45:26;21.80;58.80
27492;DHT22;14927;51.210;6.838;2022-09-09T03:48:11;21.80;58.70
27492;DHT22;14927;51.210;6.838;2022-09-09T03:50:56;21.80;58.50
27492;DHT22;14927;51.210;6.838;2022-09-09T03:53:48;21.90;58.60
27492;DHT22;14927;51.210;6.838;2022-09-09T03:56:39;21.80;58.50
27492;DHT22;14927;51.210;6.838;2022-09-09T03:59:32;21.80;58.80
27492;DHT22;14927;51.210;6.838;2022-09-09T04:02:20;21.80;58.70
27492;DHT22;14927;51.210;6.838;2022-09-09T04:05:08;21.80;58.60
27492;DHT22;14927;51.210;6.838;2022-09-09T04:07:56;21.80;58.60
27492;DHT22;14927;51.210;6.838;2022-09-09T04:10:41;21.80;58.40
27492;DHT22;14927;51.210;6.838;2022-09-09T04:13:26;21.80;58.50
27492;DHT22;14927;51.210;6.838;2022-09-09T04:16:12;21.80;58.70
27492;DHT22;14927;51.210;6.838;2022-09-09T04:18:57;21.80;58.40
27492;DHT22;14927;51.210;6.838;2022-09-09T04:21:43;21.70;58.40
27492;DHT22;14927;51.210;6.838;2022-09-09T04:24:28;21.80;58.50
27492;DHT22;14927;51.210;6.838;2022-09-09T04:27:29;21.70;58.40
27492;DHT22;14927;51.210;6.838;2022-09-09T04:30:16;21.70;58.30
27492;DHT22;14927;51.210;6.838;2022-09-09T04:33:04;21.80;58.40
27492;DHT22;14927;51.210;6.838;2022-09-09T04:35:51;21.70;58.50
27492;DHT22;14927;51.210;6.838;2022-09-09T04:38:40;21.70;58.50
27492;DHT22;14927;51.210;6.838;2022-09-09T04:41:28;21.80;58.40
27492;DHT22;14927;51.210;6.838;2022-09-09T04:44:18;21.80;58.50
27492;DHT22;14927;51.210;6.838;2022-09-09T04:47:06;21.70;58.50
27492;DHT22;14927;51.210;6.838;2022-09-09T04:49:58;21.70;58.40
27492;DHT22;14927;51.210;6.838;2022-09-09T04:52:43;21.70;58.40
27492;DHT22;14927;51.210;6.838;2022-09-09T04:55:38;21.80;58.50
27492;DHT22;14927;51.210;6.838;2022-09-09T04:58:22;21.70;58.40
27492;DHT22;14927;51.210;6.838;2022-09-09T05:01:21;21.70;58.50
27492;DHT22;14927;51.210;6.838;2022-09-09T05:04:08;21.80;58.60
27492;DHT22;14927;51.210;6.838;2022-09-09T05:06:55;21.80;58.50
27492;DHT22;14927;51.210;6.838;2022-09-09T05:09:40;21.80;58.30
27492;DHT22;14927;51.210;6.838;2022-09-09T05:12:25;21.80;58.20
27492;DHT22;14927;51.210;6.838;2022-09-09T05:15:32;21.80;58.00
27492;DHT22;14927;51.210;6.838;2022-09-09T05:18:22;21.80;58.00
27492;DHT22;14927;51.210;6.838;2022-09-09T05:21:10;21.80;58.00
27492;DHT22;14927;51.210;6.838;2022-09-09T05:24:07;21.80;58.20
27492;DHT22;14927;51.210;6.838;2022-09-09T05:26:58;21.80;58.30
27492;DHT22;14927;51.210;6.838;2022-09-09T05:29:46;21.80;58.30
27492;DHT22;14927;51.210;6.838;2022-09-09T05:32:32;21.80;58.30
27492;DHT22;14927;51.210;6.838;2022-09-09T05:35:25;21.90;58.40
27492;DHT22;14927;51.210;6.838;2022-09-09T05:38:15;21.90;58.50
27492;DHT22;14927;51.210;6.838;2022-09-09T05:41:10;21.90;58.40
27492;DHT22;14927;51.210;6.838;2022-09-09T05:43:55;21.90;58.40
27492;DHT22;14927;51.210;6.838;2022-09-09T05:46:40;21.90;58.40
27492;DHT22;14927;51.210;6.838;2022-09-09T05:49:28;21.90;58.30
27492;DHT22;14927;51.210;6.838;2022-09-09T05:52:16;21.90;58.30
27492;DHT22;14927;51.210;6.838;2022-09-09T05:55:08;21.90;58.20
27492;DHT22;14927;51.210;6.838;2022-09-09T05:58:06;21.90;58.30
27492;DHT22;14927;51.210;6.838;2022-09-09T06:00:51;21.90;58.40
27492;DHT22;14927;51.210;6.838;2022-09-09T06:03:38;21.90;58.10
27492;DHT22;14927;51.210;6.838;2022-09-09T06:06:29;22.00;58.20
27492;DHT22;14927;51.210;6.838;2022-09-09T06:09:21;21.90;58.10
27492;DHT22;14927;51.210;6.838;2022-09-09T06:12:14;21.90;58.10
27492;DHT22;14927;51.210;6.838;2022-09-09T06:15:05;22.00;58.20
27492;DHT22;14927;51.210;6.838;2022-09-09T06:17:58;21.90;58.00
27492;DHT22;14927;51.210;6.838;2022-09-09T06:20:53;21.90;58.00
27492;DHT22;14927;51.210;6.838;2022-09-09T06:23:45;22.00;58.00
27492;DHT22;14927;51.210;6.838;2022-09-09T06:26:37;22.00;57.70
27492;DHT22;14927;51.210;6.838;2022-09-09T06:29:27;21.90;57.70
27492;DHT22;14927;51.210;6.838;2022-09-09T06:32:28;22.00;57.60
27492;DHT22;14927;51.210;6.838;2022-09-09T06:35:16;21.90;57.40
27492;DHT22;14927;51.210;6.838;2022-09-09T06:38:29;22.00;57.30
27492;DHT22;14927;51.210;6.838;2022-09-09T06:41:21;22.00;56.90
27492;DHT22;14927;51.210;6.838;2022-09-09T06:44:08;22.00;56.70
27492;DHT22;14927;51.210;6.838;2022-09-09T06:46:56;21.90;56.50
27492;DHT22;14927;51.210;6.838;2022-09-09T06:49:43;21.90;56.50
27492;DHT22;14927;51.210;6.838;2022-09-09T06:52:28;22.00;56.30
27492;DHT22;14927;51.210;6.838;2022-09-09T06:55:15;21.90;56.30
27492;DHT22;14927;51.210;6.838;2022-09-09T06:58:01;21.90;56.10
27492;DHT22;14927;51.210;6.838;2022-09-09T07:04:54;22.00;56.00
27492;DHT22;14927;51.210;6.838;2022-09-09T07:07:43;22.00;55.90
27492;DHT22;14927;51.210;6.838;2022-09-09T07:10:53;22.00;55.70
27492;DHT22;14927;51.210;6.838;2022-09-09T07:13:54;22.00;55.80
27492;DHT22;14927;51.210;6.838;2022-09-09T07:16:53;22.00;55.50
27492;DHT22;14927;51.210;6.838;2022-09-09T07:19:44;22.10;55.70
27492;DHT22;14927;51.210;6.838;2022-09-09T07:22:31;22.10;55.50
27492;DHT22;14927;51.210;6.838;2022-09-09T07:25:22;22.10;55.30
27492;DHT22;14927;51.210;6.838;2022-09-09T07:28:08;22.10;55.10
27492;DHT22;14927;51.210;6.838;2022-09-09T07:31:00;22.10;55.10
27492;DHT22;14927;51.210;6.838;2022-09-09T07:33:48;22.10;54.90
27492;DHT22;14927;51.210;6.838;2022-09-09T07:36:36;22.10;55.10
27492;DHT22;14927;51.210;6.838;2022-09-09T07:39:23;22.20;54.90
27492;DHT22;14927;51.210;6.838;2022-09-09T07:42:10;22.20;54.80
27492;DHT22;14927;51.210;6.838;2022-09-09T07:45:03;22.20;54.70
27492;DHT22;14927;51.210;6.838;2022-09-09T07:47:58;22.20;54.50
27492;DHT22;14927;51.210;6.838;2022-09-09T07:50:44;22.20;54.40
27492;DHT22;14927;51.210;6.838;2022-09-09T07:53:39;22.30;54.50
27492;DHT22;14927;51.210;6.838;2022-09-09T07:56:32;22.30;54.30
27492;DHT22;14927;51.210;6.838;2022-09-09T07:59:38;22.30;54.10
27492;DHT22;14927;51.210;6.838;2022-09-09T08:02:50;22.40;54.20
27492;DHT22;14927;51.210;6.838;2022-09-09T08:05:46;22.70;53.70
27492;DHT22;14927;51.210;6.838;2022-09-09T08:09:13;22.50;53.80
27492;DHT22;14927;51.210;6.838;2022-09-09T08:12:28;22.50;53.70
27492;DHT22;14927;51.210;6.838;2022-09-09T08:15:20;22.50;53.40
27492;DHT22;14927;51.210;6.838;2022-09-09T08:18:10;22.50;52.80
27492;DHT22;14927;51.210;6.838;2022-09-09T08:21:12;22.60;52.60
27492;DHT22;14927;51.210;6.838;2022-09-09T08:24:08;22.60;51.60
27492;DHT22;14927;51.210;6.838;2022-09-09T08:26:55;22.60;51.60
27492;DHT22;14927;51.210;6.838;2022-09-09T08:29:46;22.60;51.70
27492;DHT22;14927;51.210;6.838;2022-09-09T08:32:31;22.60;51.60
27492;DHT22;14927;51.210;6.838;2022-09-09T08:35:15;22.70;51.30
27492;DHT22;14927;51.210;6.838;2022-09-09T08:38:07;22.70;51.00
27492;DHT22;14927;51.210;6.838;2022-09-09T08:47:43;22.80;50.00
27492;DHT22;14927;51.210;6.838;2022-09-09T08:50:53;22.90;49.60
27492;DHT22;14927;51.210;6.838;2022-09-09T08:53:50;22.90;49.70
27492;DHT22;14927;51.210;6.838;2022-09-09T08:56:35;23.00;49.60
27492;DHT22;14927;51.210;6.838;2022-09-09T08:59:21;23.00;49.70
27492;DHT22;14927;51.210;6.838;2022-09-09T09:05:34;23.10;49.20
27492;DHT22;14927;51.210;6.838;2022-09-09T09:11:53;23.20;49.10
27492;DHT22;14927;51.210;6.838;2022-09-09T09:14:43;23.20;49.00
27492;DHT22;14927;51.210;6.838;2022-09-09T09:17:31;23.30;49.00
27492;DHT22;14927;51.210;6.838;2022-09-09T09:20:23;23.30;48.60
27492;DHT22;14927;51.210;6.838;2022-09-09T09:23:22;23.30;48.10
27492;DHT22;14927;51.210;6.838;2022-09-09T09:26:09;23.30;48.10
27492;DHT22;14927;51.210;6.838;2022-09-09T09:32:18;23.40;48.10
27492;DHT22;14927;51.210;6.838;2022-09-09T09:35:11;23.40;47.60
27492;DHT22;14927;51.210;6.838;2022-09-09T09:38:21;23.40;47.20
27492;DHT22;14927;51.210;6.838;2022-09-09T09:41:09;23.40;46.90
27492;DHT22;14927;51.210;6.838;2022-09-09T09:43:56;23.40;47.30
27492;DHT22;14927;51.210;6.838;2022-09-09T09:46:46;23.40;47.20
27492;DHT22;14927;51.210;6.838;2022-09-09T09:49:31;23.40;47.30
27492;DHT22;14927;51.210;6.838;2022-09-09T09:52:21;23.40;47.40
27492;DHT22;14927;51.210;6.838;2022-09-09T09:55:21;23.50;47.40
27492;DHT22;14927;51.210;6.838;2022-09-09T09:58:19;23.50;47.00
27492;DHT22;14927;51.210;6.838;2022-09-09T10:01:23;23.60;46.80
27492;DHT22;14927;51.210;6.838;2022-09-09T10:04:21;23.70;46.60
27492;DHT22;14927;51.210;6.838;2022-09-09T10:07:15;23.70;46.60
27492;DHT22;14927;51.210;6.838;2022-09-09T10:10:05;23.80;46.80
27492;DHT22;14927;51.210;6.838;2022-09-09T10:13:18;23.80;46.40
27492;DHT22;14927;51.210;6.838;2022-09-09T10:16:25;23.90;46.30
27492;DHT22;14927;51.210;6.838;2022-09-09T10:19:37;23.90;46.10
27492;DHT22;14927;51.210;6.838;2022-09-09T10:22:30;24.00;46.00
27492;DHT22;14927;51.210;6.838;2022-09-09T10:25:36;24.10;46.20
27492;DHT22;14927;51.210;6.838;2022-09-09T10:35:32;24.30;45.60
27492;DHT22;14927;51.210;6.838;2022-09-09T10:38:41;24.40;45.60
27492;DHT22;14927;51.210;6.838;2022-09-09T10:41:58;24.40;45.60
27492;DHT22;14927;51.210;6.838;2022-09-09T10:48:39;24.50;45.70
27492;DHT22;14927;51.210;6.838;2022-09-09T10:55:02;24.50;45.30
27492;DHT22;14927;51.210;6.838;2022-09-09T10:58:05;24.40;45.10
27492;DHT22;14927;51.210;6.838;2022-09-09T11:01:03;24.50;45.50
27492;DHT22;14927;51.210;6.838;2022-09-09T11:07:47;24.50;44.90
27492;DHT22;14927;51.210;6.838;2022-09-09T11:14:01;24.50;44.80
27492;DHT22;14927;51.210;6.838;2022-09-09T11:17:03;24.50;45.20
27492;DHT22;14927;51.210;6.838;2022-09-09T11:19:50;24.50;45.00
27492;DHT22;14927;51.210;6.838;2022-09-09T11:23:03;24.50;45.00
27492;DHT22;14927;51.210;6.838;2022-09-09T11:25:59;24.50;44.80
27492;DHT22;14927;51.210;6.838;2022-09-09T11:29:22;24.50;46.60
27492;DHT22;14927;51.210;6.838;2022-09-09T11:38:28;24.40;48.10
27492;DHT22;14927;51.210;6.838;2022-09-09T11:41:20;24.40;48.40
27492;DHT22;14927;51.210;6.838;2022-09-09T11:44:13;24.40;48.60
27492;DHT22;14927;51.210;6.838;2022-09-09T11:47:02;24.40;49.00
27492;DHT22;14927;51.210;6.838;2022-09-09T11:49:47;24.40;48.60
27492;DHT22;14927;51.210;6.838;2022-09-09T11:52:39;24.40;48.60
27492;DHT22;14927;51.210;6.838;2022-09-09T11:55:28;24.40;48.20
27492;DHT22;14927;51.210;6.838;2022-09-09T11:58:18;24.40;47.70
27492;DHT22;14927;51.210;6.838;2022-09-09T12:01:44;24.40;47.30
27492;DHT22;14927;51.210;6.838;2022-09-09T12:05:07;24.40;46.70
27492;DHT22;14927;51.210;6.838;2022-09-09T12:08:02;24.50;47.00
27492;DHT22;14927;51.210;6.838;2022-09-09T12:11:08;24.50;46.50
27492;DHT22;14927;51.210;6.838;2022-09-09T12:14:22;24.40;47.00
27492;DHT22;14927;51.210;6.838;2022-09-09T12:17:20;24.40;48.00
27492;DHT22;14927;51.210;6.838;2022-09-09T12:23:26;24.50;47.90
27492;DHT22;14927;51.210;6.838;2022-09-09T12:30:04;24.60;47.10
27492;DHT22;14927;51.210;6.838;2022-09-09T12:33:12;24.80;46.90
27492;DHT22;14927;51.210;6.838;2022-09-09T12:36:25;24.80;46.60
27492;DHT22;14927;51.210;6.838;2022-09-09T12:39:21;24.90;46.00
27492;DHT22;14927;51.210;6.838;2022-09-09T12:42:17;24.90;45.80
27492;DHT22;14927;51.210;6.838;2022-09-09T12:45:22;24.90;45.80
27492;DHT22;14927;51.210;6.838;2022-09-09T12:48:11;25.00;45.40
27492;DHT22;14927;51.210;6.838;2022-09-09T12:50:59;25.10;45.40
27492;DHT22;14927;51.210;6.838;2022-09-09T12:53:44;25.20;45.10
27492;DHT22;14927;51.210;6.838;2022-09-09T12:56:31;25.20;45.00
27492;DHT22;14927;51.210;6.838;2022-09-09T12:59:25;25.20;45.00
27492;DHT22;14927;51.210;6.838;2022-09-09T13:02:23;25.20;44.90
27492;DHT22;14927;51.210;6.838;2022-09-09T13:05:15;25.20;49.00
27492;DHT22;14927;51.210;6.838;2022-09-09T13:08:03;25.20;51.90
27492;DHT22;14927;51.210;6.838;2022-09-09T13:10:51;25.10;53.00
27492;DHT22;14927;51.210;6.838;2022-09-09T13:13:40;25.00;54.90
27492;DHT22;14927;51.210;6.838;2022-09-09T13:16:31;24.80;56.10
27492;DHT22;14927;51.210;6.838;2022-09-09T13:19:17;24.80;56.90
27492;DHT22;14927;51.210;6.838;2022-09-09T13:28:02;24.70;58.10
27492;DHT22;14927;51.210;6.838;2022-09-09T13:31:35;24.70;57.90
27492;DHT22;14927;51.210;6.838;2022-09-09T13:34:32;24.70;57.90
27492;DHT22;14927;51.210;6.838;2022-09-09T13:37:38;24.70;58.30
27492;DHT22;14927;51.210;6.838;2022-09-09T13:40:23;24.70;58.10
27492;DHT22;14927;51.210;6.838;2022-09-09T13:43:22;24.70;58.10
27492;DHT22;14927;51.210;6.838;2022-09-09T13:46:32;24.70;57.90
27492;DHT22;14927;51.210;6.838;2022-09-09T13:49:22;24.60;58.10
27492;DHT22;14927;51.210;6.838;2022-09-09T13:52:18;24.70;57.80
27492;DHT22;14927;51.210;6.838;2022-09-09T13:55:03;24.80;56.20
27492;DHT22;14927;51.210;6.838;2022-09-09T13:57:56;24.80;54.30
27492;DHT22;14927;51.210;6.838;2022-09-09T14:00:45;24.70;53.20
27492;DHT22;14927;51.210;6.838;2022-09-09T14:03:30;24.70;53.20
27492;DHT22;14927;51.210;6.838;2022-09-09T14:06:15;24.60;53.00
27492;DHT22;14927;51.210;6.838;2022-09-09T14:08:59;24.70;54.00
27492;DHT22;14927;51.210;6.838;2022-09-09T14:11:44;24.60;54.00
27492;DHT22;14927;51.210;6.838;2022-09-09T14:14:32;24.70;53.60
27492;DHT22;14927;51.210;6.838;2022-09-09T14:17:17;24.70;53.30
27492;DHT22;14927;51.210;6.838;2022-09-09T14:20:05;24.80;52.90
27492;DHT22;14927;51.210;6.838;2022-09-09T14:22:51;24.80;53.40
27492;DHT22;14927;51.210;6.838;2022-09-09T14:25:42;24.90;52.00
27492;DHT22;14927;51.210;6.838;2022-09-09T14:28:27;24.90;51.20
27492;DHT22;14927;51.210;6.838;2022-09-09T14:31:13;25.00;51.80
27492;DHT22;14927;51.210;6.838;2022-09-09T14:34:01;25.10;50.40
27492;DHT22;14927;51.210;6.838;2022-09-09T14:36:49;25.10;49.60
27492;DHT22;14927;51.210;6.838;2022-09-09T14:39:33;25.10;49.10
27492;DHT22;14927;51.210;6.838;2022-09-09T14:42:18;25.10;48.80
27492;DHT22;14927;51.210;6.838;2022-09-09T14:45:03;25.00;47.70
27492;DHT22;14927;51.210;6.838;2022-09-09T14:47:49;25.00;47.00
27492;DHT22;14927;51.210;6.838;2022-09-09T14:50:34;24.90;47.00
27492;DHT22;14927;51.210;6.838;2022-09-09T14:53:20;24.80;48.20
27492;DHT22;14927;51.210;6.838;2022-09-09T14:56:07;24.80;50.30
27492;DHT22;14927;51.210;6.838;2022-09-09T14:58:58;24.60;51.00
27492;DHT22;14927;51.210;6.838;2022-09-09T15:01:44;24.50;50.90
27492;DHT22;14927;51.210;6.838;2022-09-09T15:04:29;24.40;51.20
27492;DHT22;14927;51.210;6.838;2022-09-09T15:07:14;24.20;51.40
27492;DHT22;14927;51.210;6.838;2022-09-09T15:09:59;24.20;51.80
27492;DHT22;14927;51.210;6.838;2022-09-09T15:12:50;24.00;52.60
27492;DHT22;14927;51.210;6.838;2022-09-09T15:15:34;23.90;53.10
27492;DHT22;14927;51.210;6.838;2022-09-09T15:18:40;23.80;52.80
27492;DHT22;14927;51.210;6.838;2022-09-09T15:21:45;23.70;54.10
27492;DHT22;14927;51.210;6.838;2022-09-09T15:24:35;23.60;54.20
27492;DHT22;14927;51.210;6.838;2022-09-09T15:27:50;23.40;55.70
27492;DHT22;14927;51.210;6.838;2022-09-09T15:31:31;23.30;55.60
27492;DHT22;14927;51.210;6.838;2022-09-09T15:34:19;23.30;56.10
27492;DHT22;14927;51.210;6.838;2022-09-09T15:37:05;23.20;57.20
27492;DHT22;14927;51.210;6.838;2022-09-09T15:40:22;23.20;57.60
27492;DHT22;14927;51.210;6.838;2022-09-09T15:43:55;23.10;59.30
27492;DHT22;14927;51.210;6.838;2022-09-09T15:47:07;23.10;58.80
27492;DHT22;14927;51.210;6.838;2022-09-09T15:49:58;23.10;59.90
27492;DHT22;14927;51.210;6.838;2022-09-09T15:53:12;23.10;59.10
27492;DHT22;14927;51.210;6.838;2022-09-09T15:55:58;23.00;59.60
27492;DHT22;14927;51.210;6.838;2022-09-09T15:58:46;23.00;59.00
27492;DHT22;14927;51.210;6.838;2022-09-09T16:01:31;23.00;59.20
27492;DHT22;14927;51.210;6.838;2022-09-09T16:04:17;22.90;59.70
27492;DHT22;14927;51.210;6.838;2022-09-09T16:07:07;22.90;59.90
27492;DHT22;14927;51.210;6.838;2022-09-09T16:09:52;22.90;59.80
27492;DHT22;14927;51.210;6.838;2022-09-09T16:12:36;22.80;59.80
27492;DHT22;14927;51.210;6.838;2022-09-09T16:15:21;22.80;60.40
27492;DHT22;14927;51.210;6.838;2022-09-09T16:18:07;22.80;60.60
27492;DHT22;14927;51.210;6.838;2022-09-09T16:20:55;22.80;60.40
27492;DHT22;14927;51.210;6.838;2022-09-09T16:23:39;22.90;60.20
27492;DHT22;14927;51.210;6.838;2022-09-09T16:26:24;22.90;59.90
27492;DHT22;14927;51.210;6.838;2022-09-09T16:29:09;22.90;60.10
27492;DHT22;14927;51.210;6.838;2022-09-09T16:31:54;22.90;60.10
27492;DHT22;14927;51.210;6.838;2022-09-09T16:34:39;22.90;60.20
27492;DHT22;14927;51.210;6.838;2022-09-09T16:37:24;22.90;60.10
27492;DHT22;14927;51.210;6.838;2022-09-09T16:40:08;22.90;60.20
27492;DHT22;14927;51.210;6.838;2022-09-09T16:42:53;22.90;60.40
27492;DHT22;14927;51.210;6.838;2022-09-09T16:45:43;23.00;60.30
27492;DHT22;14927;51.210;6.838;2022-09-09T16:48:32;22.90;60.10
27492;DHT22;14927;51.210;6.838;2022-09-09T16:51:24;23.00;59.80
27492;DHT22;14927;51.210;6.838;2022-09-09T16:54:09;23.00;59.70
27492;DHT22;14927;51.210;6.838;2022-09-09T16:56:54;22.90;59.80
27492;DHT22;14927;51.210;6.838;2022-09-09T16:59:39;22.90;60.10
27492;DHT22;14927;51.210;6.838;2022-09-09T17:02:24;22.90;60.30
27492;DHT22;14927;51.210;6.838;2022-09-09T17:05:08;22.80;61.20
27492;DHT22;14927;51.210;6.838;2022-09-09T17:07:53;22.80;60.70
27492;DHT22;14927;51.210;6.838;2022-09-09T17:10:41;22.80;60.80
27492;DHT22;14927;51.210;6.838;2022-09-09T17:13:26;22.70;61.20
27492;DHT22;14927;51.210;6.838;2022-09-09T17:16:12;22.70;61.60
27492;DHT22;14927;51.210;6.838;2022-09-09T17:18:57;22.70;61.80
27492;DHT22;14927;51.210;6.838;2022-09-09T17:21:48;22.70;62.00
27492;DHT22;14927;51.210;6.838;2022-09-09T17:24:32;22.70;62.10
27492;DHT22;14927;51.210;6.838;2022-09-09T17:27:18;22.70;62.40
27492;DHT22;14927;51.210;6.838;2022-09-09T17:30:04;22.70;62.50
27492;DHT22;14927;51.210;6.838;2022-09-09T17:32:49;22.70;62.40
27492;DHT22;14927;51.210;6.838;2022-09-09T17:35:33;22.70;63.10
27492;DHT22;14927;51.210;6.838;2022-09-09T17:38:18;22.60;62.40
27492;DHT22;14927;51.210;6.838;2022-09-09T17:41:04;22.70;62.60
27492;DHT22;14927;51.210;6.838;2022-09-09T17:43:52;22.70;62.70
27492;DHT22;14927;51.210;6.838;2022-09-09T17:46:38;22.60;62.80
27492;DHT22;14927;51.210;6.838;2022-09-09T17:49:24;22.60;62.70
27492;DHT22;14927;51.210;6.838;2022-09-09T17:52:08;22.60;62.50
27492;DHT22;14927;51.210;6.838;2022-09-09T17:54:53;22.60;62.00
27492;DHT22;14927;51.210;6.838;2022-09-09T17:57:40;22.60;61.60
27492;DHT22;14927;51.210;6.838;2022-09-09T18:00:32;22.50;61.50
27492;DHT22;14927;51.210;6.838;2022-09-09T18:03:16;22.40;61.80
27492;DHT22;14927;51.210;6.838;2022-09-09T18:06:06;22.40;61.80
27492;DHT22;14927;51.210;6.838;2022-09-09T18:09:04;22.30;62.20
27492;DHT22;14927;51.210;6.838;2022-09-09T18:11:53;22.30;62.30
27492;DHT22;14927;51.210;6.838;2022-09-09T18:14:39;22.20;62.20
27492;DHT22;14927;51.210;6.838;2022-09-09T18:17:24;22.20;62.20
27492;DHT22;14927;51.210;6.838;2022-09-09T18:20:11;22.10;62.10
27492;DHT22;14927;51.210;6.838;2022-09-09T18:22:56;22.10;62.10
27492;DHT22;14927;51.210;6.838;2022-09-09T18:25:41;22.10;62.10
27492;DHT22;14927;51.210;6.838;2022-09-09T18:28:26;22.10;62.30
27492;DHT22;14927;51.210;6.838;2022-09-09T18:31:13;22.00;62.40
27492;DHT22;14927;51.210;6.838;2022-09-09T18:34:00;22.00;62.40
27492;DHT22;14927;51.210;6.838;2022-09-09T18:36:49;22.00;62.40
27492;DHT22;14927;51.210;6.838;2022-09-09T18:39:38;22.00;62.70
27492;DHT22;14927;51.210;6.838;2022-09-09T18:42:23;21.90;62.70
27492;DHT22;14927;51.210;6.838;2022-09-09T18:45:09;21.90;62.60
27492;DHT22;14927;51.210;6.838;2022-09-09T18:47:54;21.90;63.20
27492;DHT22;14927;51.210;6.838;2022-09-09T18:50:40;21.90;62.40
27492;DHT22;14927;51.210;6.838;2022-09-09T18:53:24;21.90;62.60
27492;DHT22;14927;51.210;6.838;2022-09-09T18:56:11;21.90;62.80
27492;DHT22;14927;51.210;6.838;2022-09-09T18:58:59;21.90;62.70
27492;DHT22;14927;51.210;6.838;2022-09-09T19:01:46;21.90;62.40
27492;DHT22;14927;51.210;6.838;2022-09-09T19:04:31;21.80;62.30
27492;DHT22;14927;51.210;6.838;2022-09-09T19:07:16;21.80;62.20
27492;DHT22;14927;51.210;6.838;2022-09-09T19:10:02;21.90;62.20
27492;DHT22;14927;51.210;6.838;2022-09-09T19:12:46;21.90;62.30
27492;DHT22;14927;51.210;6.838;2022-09-09T19:15:34;21.80;62.50
27492;DHT22;14927;51.210;6.838;2022-09-09T19:18:20;21.80;62.50
27492;DHT22;14927;51.210;6.838;2022-09-09T19:24:09;21.80;63.00
27492;DHT22;14927;51.210;6.838;2022-09-09T19:27:01;21.80;62.40
27492;DHT22;14927;51.210;6.838;2022-09-09T19:29:49;21.70;62.40
27492;DHT22;14927;51.210;6.838;2022-09-09T19:32:33;21.70;62.70
27492;DHT22;14927;51.210;6.838;2022-09-09T19:35:21;21.70;62.90
27492;DHT22;14927;51.210;6.838;2022-09-09T19:38:05;21.70;63.00
27492;DHT22;14927;51.210;6.838;2022-09-09T19:40:50;21.70;63.00
27492;DHT22;14927;51.210;6.838;2022-09-09T19:43:36;21.70;62.80
27492;DHT22;14927;51.210;6.838;2022-09-09T19:46:21;21.70;62.60
27492;DHT22;14927;51.210;6.838;2022-09-09T19:49:06;21.70;62.50
27492;DHT22;14927;51.210;6.838;2022-09-09T19:51:50;21.60;63.20